• Join FlightAware (Why Join?)
  • Login
  • US Flag 
04:44PM EDT


 

Airport Tracker/Info


-or-


 

Live Flight TrackerFlight Track Log ✈ AWI3602 ✈ 10-May-2013 ✈ KAGS - KCLT

Flight Track Log - Related Links

Times and Time Zones

All times are in EDT time to prevent confusion due to time zone crossing. See the AWI3602 flight status page for this flight to view local times or setup timezone preferences in your user account.

Time Position Orientation Groundspeed Altitude Reporting Facility
EDT Latitude Longitude Course Direction KTS MPH feet Rate Location/Type
07:33AM 33.5906 -82.0000 North  Level FlightAware Approximate
07:34AM 33.6646 -82.0194 346° North  Level FlightAware Approximate
07:34AM 33.4817 -82.0539 347° North 301 346 7,800  Level Atlanta Center
07:35AM 33.7384 -82.0415 346° North  Level FlightAware Approximate
07:35AM 33.5592 -82.0619 355° North 286 329 9,700  Level Atlanta Center
07:36AM 33.8129 -82.0592 351° North  Level FlightAware Approximate
07:36AM 33.6428 -82.0750 353° North 286 329 11,300  Level Atlanta Center
07:37AM 33.8878 -82.0742 351° North  Level FlightAware Approximate
07:37AM 33.7328 -82.0856 354° North 303 349 12,000  Level Atlanta Center
07:38AM 33.9632 -82.0833 North  Level FlightAware Approximate
07:38AM 33.8247 -82.0983 353° North 317 365 12,000  Level Atlanta Center
07:39AM 34.0385 -82.0953 352° North  Level FlightAware Approximate
07:39AM 33.9147 -82.1089 354° North 322 371 12,000  Level Atlanta Center
07:40AM 34.1131 -82.1126 347° North  Level FlightAware Approximate
07:40AM 34.0067 -82.1217 353° North 332 382 12,000  Level Atlanta Center
07:41AM 34.0903 -82.1275 357° North 332 382 12,000  Level Atlanta Center
07:42AM 34.1686 -82.0678 32° Northeast 321 369 12,000  Level Atlanta Center
07:43AM 34.2447 -82.0008 36° Northeast 312 359 12,000  Level Atlanta Center
07:44AM 34.3228 -81.9261 38° Northeast 334 384 12,000  Level Atlanta Center
07:45AM 34.4031 -81.8536 37° Northeast 353 406 12,000  Level Atlanta Center
07:46AM 34.4808 -81.7783 39° Northeast 358 412 12,000  Level Atlanta Center
07:47AM 34.5611 -81.7056 37° Northeast 363 418 12,000  Level Atlanta Center
07:48AM 34.6244 -81.6483 37° Northeast 367 422 12,000  Level Atlanta Center
07:48AM 34.6492 -81.6250 38° Northeast 368 423 12,000  Level Atlanta Center
07:49AM 34.7228 -81.5519 39° Northeast 327 376 12,000  Level Atlanta Center
07:50AM 34.7819 -81.4794 45° Northeast 297 342 12,000  Level Atlanta Center
07:51AM 34.8428 -81.4042 45° Northeast 310 357 12,000  Level Atlanta Center
07:52AM 34.8956 -81.3367 46° Northeast 303 349 12,000 -180 Level Atlanta Center
07:53AM 34.9564 -81.2586 46° Northeast 309 356 11,700 -900 Descending Atlanta Center
07:55AM 35.0233 -81.1728 46° Northeast 304 350 10,200 -1,320 Descending Atlanta Center
07:55AM 35.0678 -81.1103 49° Northeast 303 349 9,000 -660 Descending Atlanta Center
07:56AM 35.1272 -81.0625 33° Northeast 274 315 9,000 -480 Level Atlanta Center
07:58AM 35.2108 -81.0722 355° North 238 274 8,000 -1,260 Descending Atlanta Center
07:59AM 35.2797 -81.0747 358° North 243 280 6,400 -1,620 Descending Atlanta Center
08:00AM 35.3447 -81.0803 356° North 237 273 4,800 -1,620 Descending Atlanta Center